createdAt,value
2015-03-25T00:00:14.078Z,100322
2015-03-25T00:00:32.328Z,100313
2015-03-25T00:00:50.565Z,100325
2015-03-25T00:01:08.815Z,100313
2015-03-25T00:01:27.065Z,100325
2015-03-25T00:01:45.301Z,100316
2015-03-25T00:02:03.551Z,100325
2015-03-25T00:02:21.786Z,100322
2015-03-25T00:02:40.038Z,100316
2015-03-25T00:02:58.272Z,100319
2015-03-25T00:03:15.866Z,100316
2015-03-25T00:03:34.100Z,100308
2015-03-25T00:03:52.338Z,100313
2015-03-25T00:04:10.604Z,100316
2015-03-25T00:04:28.838Z,100319
2015-03-25T00:04:47.075Z,100319
2015-03-25T00:05:04.669Z,100311
2015-03-25T00:05:22.919Z,100308
2015-03-25T00:05:41.154Z,100322
2015-03-25T00:05:59.404Z,100313
2015-03-25T00:06:17.638Z,100311
2015-03-25T00:06:35.873Z,100308
2015-03-25T00:06:54.126Z,100316
2015-03-25T00:07:11.704Z,100322
2015-03-25T00:07:29.954Z,100325
2015-03-25T00:07:48.190Z,100322
2015-03-25T00:08:06.440Z,100319
2015-03-25T00:08:24.690Z,100322
2015-03-25T00:08:42.928Z,100331
2015-03-25T00:09:01.193Z,100322
2015-03-25T00:09:19.428Z,100331
2015-03-25T00:09:37.664Z,100322
2015-03-25T00:09:55.914Z,100322
2015-03-25T00:10:14.148Z,100316
2015-03-25T00:10:32.398Z,100319
2015-03-25T00:10:50.635Z,100325
2015-03-25T00:11:08.869Z,100331
2015-03-25T00:11:27.119Z,100322
2015-03-25T00:11:45.355Z,100322
2015-03-25T00:12:03.605Z,100331
2015-03-25T00:12:21.855Z,100325
2015-03-25T00:12:40.093Z,100316
2015-03-25T00:12:58.327Z,100325
2015-03-25T00:13:16.577Z,100331
2015-03-25T00:13:34.827Z,100322
2015-03-25T00:13:53.080Z,100331
2015-03-25T00:14:11.315Z,100325
2015-03-25T00:14:29.565Z,100319
2015-03-25T00:14:47.801Z,100325
2015-03-25T00:15:06.051Z,100331
2015-03-25T00:15:24.285Z,100336
2015-03-25T00:15:42.537Z,100334
2015-03-25T00:16:00.772Z,100338
2015-03-25T00:16:19.006Z,100331
2015-03-25T00:16:37.256Z,100331
2015-03-25T00:16:55.492Z,100331
2015-03-25T00:17:13.742Z,100334
2015-03-25T00:17:31.977Z,100331
2015-03-25T00:17:50.229Z,100336
2015-03-25T00:18:08.463Z,100334
2015-03-25T00:18:26.713Z,100334
2015-03-25T00:18:44.950Z,100325
2015-03-25T00:19:03.200Z,100319
2015-03-25T00:19:21.434Z,100322
2015-03-25T00:19:39.668Z,100325
2015-03-25T00:19:57.921Z,100334
2015-03-25T00:20:16.203Z,100322
2015-03-25T00:20:34.437Z,100325
2015-03-25T00:20:52.690Z,100319
2015-03-25T00:21:10.924Z,100331
2015-03-25T00:21:29.174Z,100331
2015-03-25T00:21:47.411Z,100336
2015-03-25T00:22:05.661Z,100325
2015-03-25T00:22:23.911Z,100322
2015-03-25T00:22:42.145Z,100325
2015-03-25T00:23:00.398Z,100331
2015-03-25T00:23:18.632Z,100311
2015-03-25T00:23:36.867Z,100331
2015-03-25T00:23:55.118Z,100325
2015-03-25T00:24:13.352Z,100322
2015-03-25T00:24:31.587Z,100322
2015-03-25T00:24:49.840Z,100325
2015-03-25T00:25:08.074Z,100313
2015-03-25T00:25:26.340Z,100322
2015-03-25T00:25:44.558Z,100319
2015-03-25T00:26:02.826Z,100316
2015-03-25T00:26:21.060Z,100316
2015-03-25T00:26:39.310Z,100316
2015-03-25T00:26:57.563Z,100316
2015-03-25T00:27:15.798Z,100316
2015-03-25T00:27:34.032Z,100322
2015-03-25T00:27:52.284Z,100313
2015-03-25T00:28:10.518Z,100316
2015-03-25T00:28:28.768Z,100311
2015-03-25T00:28:47.005Z,100316
2015-03-25T00:29:05.255Z,100313
2015-03-25T00:29:23.489Z,100311
2015-03-25T00:29:41.739Z,100311
2015-03-25T00:29:59.977Z,100305
2015-03-25T00:30:18.227Z,100316
2015-03-25T00:30:36.461Z,100316
2015-03-25T00:30:54.712Z,100313
2015-03-25T00:31:12.946Z,100311
2015-03-25T00:31:31.196Z,100313
2015-03-25T00:31:49.434Z,100316
2015-03-25T00:32:07.527Z,100311
2015-03-25T00:32:25.762Z,100313
2015-03-25T00:32:44.012Z,100316
2015-03-25T00:33:02.249Z,100313
2015-03-25T00:33:20.484Z,100308
2015-03-25T00:33:38.734Z,100316
2015-03-25T00:33:56.970Z,100311
2015-03-25T00:34:15.220Z,100313
2015-03-25T00:34:32.798Z,100311
2015-03-25T00:34:51.050Z,100322
2015-03-25T00:35:09.300Z,100313
2015-03-25T00:35:27.534Z,100319
2015-03-25T00:35:45.784Z,100319
2015-03-25T00:36:04.021Z,100313
2015-03-25T00:36:22.255Z,100319
2015-03-25T00:36:40.505Z,100322
2015-03-25T00:36:58.757Z,100316
2015-03-25T00:37:16.835Z,100322
2015-03-25T00:37:35.117Z,100322
2015-03-25T00:37:53.322Z,100316
2015-03-25T00:38:11.572Z,100319
2015-03-25T00:38:29.822Z,100316
2015-03-25T00:38:47.400Z,100322
2015-03-25T00:39:05.653Z,100322
2015-03-25T00:39:23.903Z,100322
2015-03-25T00:39:42.137Z,100313
2015-03-25T00:40:00.390Z,100334
2015-03-25T00:40:18.640Z,100322
2015-03-25T00:40:36.875Z,100319
2015-03-25T00:40:55.111Z,100316
2015-03-25T00:41:13.361Z,100319
2015-03-25T00:41:31.611Z,100325
2015-03-25T00:41:49.847Z,100322
2015-03-25T00:42:08.097Z,100311
2015-03-25T00:42:26.332Z,100322
2015-03-25T00:42:44.566Z,100331
2015-03-25T00:43:02.818Z,100325
2015-03-25T00:43:21.052Z,100322
2015-03-25T00:43:39.302Z,100325
2015-03-25T00:43:57.540Z,100325
2015-03-25T00:44:15.790Z,100334
2015-03-25T00:44:34.040Z,100319
2015-03-25T00:44:52.277Z,100334
2015-03-25T00:45:10.512Z,100325
2015-03-25T00:45:28.762Z,100331
2015-03-25T00:45:46.996Z,100334
2015-03-25T00:46:05.232Z,100338
2015-03-25T00:46:23.482Z,100334
2015-03-25T00:46:41.717Z,100336
2015-03-25T00:46:59.953Z,100334
2015-03-25T00:47:18.203Z,100338
2015-03-25T00:47:36.437Z,100350
2015-03-25T00:47:54.689Z,100334
2015-03-25T00:48:12.924Z,100334
2015-03-25T00:48:31.174Z,100338
2015-03-25T00:48:49.408Z,100344
2015-03-25T00:49:07.661Z,100341
2015-03-25T00:49:25.896Z,100338
2015-03-25T00:49:44.146Z,100338
2015-03-25T00:50:02.381Z,100338
2015-03-25T00:50:20.615Z,100338
2015-03-25T00:50:38.865Z,100347
2015-03-25T00:50:57.103Z,100350
2015-03-25T00:51:15.337Z,100341
2015-03-25T00:51:33.587Z,100344
2015-03-25T00:51:51.821Z,100338
2015-03-25T00:52:10.074Z,100338
2015-03-25T00:52:28.324Z,100350
2015-03-25T00:52:46.559Z,100350
2015-03-25T00:53:04.795Z,100338
2015-03-25T00:53:23.045Z,100341
2015-03-25T00:53:41.280Z,100350
2015-03-25T00:53:58.875Z,100350
2015-03-25T00:54:17.110Z,100347
2015-03-25T00:54:35.344Z,100350
2015-03-25T00:54:53.594Z,100359
2015-03-25T00:55:11.830Z,100350
2015-03-25T00:55:30.080Z,100347
2015-03-25T00:55:48.315Z,100341
2015-03-25T00:56:06.551Z,100350
2015-03-25T00:56:24.801Z,100350
2015-03-25T00:56:43.036Z,100341
2015-03-25T00:57:01.289Z,100347
2015-03-25T00:57:19.523Z,100347
2015-03-25T00:57:37.773Z,100347
2015-03-25T00:57:56.007Z,100353
2015-03-25T00:58:14.260Z,100350
2015-03-25T00:58:32.354Z,100344
2015-03-25T00:58:50.604Z,100344
2015-03-25T00:59:08.840Z,100331
2015-03-25T00:59:27.075Z,100344
2015-03-25T00:59:45.325Z,100338
2015-03-25T01:00:03.561Z,100344
2015-03-25T01:00:21.796Z,100347
2015-03-25T01:00:40.046Z,100341
2015-03-25T01:00:58.280Z,100338
2015-03-25T01:01:16.549Z,100341
2015-03-25T01:01:34.783Z,100338
2015-03-25T01:01:53.017Z,100347
2015-03-25T01:02:11.268Z,100353
2015-03-25T01:02:29.503Z,100338
2015-03-25T01:02:47.753Z,100350
2015-03-25T01:03:05.990Z,100341
2015-03-25T01:03:24.224Z,100350
2015-03-25T01:03:42.599Z,100350
2015-03-25T01:04:00.849Z,100350
2015-03-25T01:04:19.086Z,100347
2015-03-25T01:04:37.336Z,100347
2015-03-25T01:04:55.570Z,100350
2015-03-25T01:05:13.823Z,100347
2015-03-25T01:05:32.058Z,100344
2015-03-25T01:05:50.308Z,100350
2015-03-25T01:06:08.544Z,100347
2015-03-25T01:06:26.794Z,100347
2015-03-25T01:06:45.044Z,100347
2015-03-25T01:07:03.278Z,100347
2015-03-25T01:07:21.515Z,100347
2015-03-25T01:07:39.765Z,100341
2015-03-25T01:07:57.999Z,100356
2015-03-25T01:08:16.252Z,100341
2015-03-25T01:08:34.486Z,100347
2015-03-25T01:08:52.736Z,100359
2015-03-25T01:09:10.973Z,100347
2015-03-25T01:09:29.223Z,100359
2015-03-25T01:09:47.457Z,100344
2015-03-25T01:10:05.707Z,100344
2015-03-25T01:10:23.959Z,100350
2015-03-25T01:10:42.194Z,100353
2015-03-25T01:11:00.444Z,100341
2015-03-25T01:11:18.681Z,100353
2015-03-25T01:11:36.915Z,100347
2015-03-25T01:11:55.165Z,100353
2015-03-25T01:12:13.402Z,100350
2015-03-25T01:12:31.652Z,100344
2015-03-25T01:12:49.886Z,100350
2015-03-25T01:13:08.122Z,100353
2015-03-25T01:13:26.372Z,100350
2015-03-25T01:13:44.622Z,100350
2015-03-25T01:14:02.872Z,100344
2015-03-25T01:14:21.110Z,100347
2015-03-25T01:14:39.344Z,100350
2015-03-25T01:14:57.625Z,100353
2015-03-25T01:15:15.831Z,100347
2015-03-25T01:15:34.081Z,100341
2015-03-25T01:15:52.315Z,100344
2015-03-25T01:16:10.567Z,100347
2015-03-25T01:16:28.801Z,100347
2015-03-25T01:16:47.036Z,100350
2015-03-25T01:17:05.286Z,100336
2015-03-25T01:17:23.538Z,100341
2015-03-25T01:17:41.772Z,100353
2015-03-25T01:18:00.022Z,100347
2015-03-25T01:18:18.259Z,100359
2015-03-25T01:18:36.494Z,100347
2015-03-25T01:18:54.744Z,100347
2015-03-25T01:19:12.981Z,100353
2015-03-25T01:19:31.231Z,100347
2015-03-25T01:19:49.481Z,100361
2015-03-25T01:20:07.716Z,100356
2015-03-25T01:20:25.951Z,100341
2015-03-25T01:20:44.201Z,100341
2015-03-25T01:21:02.435Z,100347
2015-03-25T01:21:20.688Z,100344
2015-03-25T01:21:38.923Z,100338
2015-03-25T01:21:57.173Z,100347
2015-03-25T01:22:15.409Z,100356
2015-03-25T01:22:33.643Z,100356
2015-03-25T01:22:51.893Z,100350
2015-03-25T01:23:10.128Z,100350
2015-03-25T01:23:28.365Z,100350
2015-03-25T01:23:46.600Z,100353
2015-03-25T01:24:04.850Z,100344
2015-03-25T01:24:23.086Z,100341
2015-03-25T01:24:41.336Z,100347
2015-03-25T01:24:59.570Z,100344
2015-03-25T01:25:17.839Z,100350
2015-03-25T01:25:36.089Z,100347
2015-03-25T01:25:54.323Z,100341
2015-03-25T01:26:12.574Z,100350
2015-03-25T01:26:30.809Z,100353
2015-03-25T01:26:49.043Z,100350
2015-03-25T01:27:07.293Z,100353
2015-03-25T01:27:25.545Z,100350
2015-03-25T01:27:43.779Z,100350
2015-03-25T01:28:02.029Z,100341
2015-03-25T01:28:20.267Z,100347
2015-03-25T01:28:38.501Z,100344
2015-03-25T01:28:56.751Z,100347
2015-03-25T01:29:15.128Z,100359
2015-03-25T01:29:33.378Z,100347
2015-03-25T01:29:51.613Z,100344
2015-03-25T01:30:09.863Z,100347
2015-03-25T01:30:28.100Z,100347
2015-03-25T01:30:46.350Z,100344
2015-03-25T01:31:04.584Z,100347
2015-03-25T01:31:22.821Z,100344
2015-03-25T01:31:41.071Z,100347
2015-03-25T01:31:59.305Z,100336
2015-03-25T01:32:17.557Z,100336
2015-03-25T01:32:35.791Z,100338
2015-03-25T01:32:53.385Z,100344
2015-03-25T01:33:11.620Z,100336
2015-03-25T01:33:29.872Z,100341
2015-03-25T01:33:48.106Z,100344
2015-03-25T01:34:06.356Z,100341
2015-03-25T01:34:24.593Z,100341
2015-03-25T01:34:42.828Z,100344
2015-03-25T01:35:01.078Z,100341
2015-03-25T01:35:19.331Z,100338
2015-03-25T01:35:37.565Z,100341
2015-03-25T01:35:55.799Z,100344
2015-03-25T01:36:14.051Z,100353
2015-03-25T01:36:32.301Z,100347
2015-03-25T01:36:50.536Z,100341
2015-03-25T01:37:08.786Z,100353
2015-03-25T01:37:27.038Z,100344
2015-03-25T01:37:45.272Z,100347
2015-03-25T01:38:03.522Z,100356
2015-03-25T01:38:21.759Z,100350
2015-03-25T01:38:40.024Z,100347
2015-03-25T01:38:58.243Z,100341
2015-03-25T01:39:16.479Z,100353
2015-03-25T01:39:34.729Z,100350
2015-03-25T01:39:52.979Z,100350
2015-03-25T01:40:11.214Z,100353
2015-03-25T01:40:29.467Z,100350
2015-03-25T01:40:47.701Z,100347
2015-03-25T01:41:05.951Z,100350
2015-03-25T01:41:24.187Z,100347
2015-03-25T01:41:42.437Z,100356
2015-03-25T01:42:00.687Z,100347
2015-03-25T01:42:18.924Z,100341
2015-03-25T01:42:37.174Z,100344
2015-03-25T01:42:55.408Z,100341
2015-03-25T01:43:13.658Z,100344
2015-03-25T01:43:31.896Z,100334
2015-03-25T01:43:50.146Z,100347
2015-03-25T01:44:08.380Z,100344
2015-03-25T01:44:26.632Z,100334
2015-03-25T01:44:44.866Z,100336
2015-03-25T01:45:03.116Z,100344
2015-03-25T01:45:21.354Z,100331
2015-03-25T01:45:39.604Z,100334
2015-03-25T01:45:57.838Z,100336
2015-03-25T01:46:16.088Z,100344
2015-03-25T01:46:34.340Z,100331
2015-03-25T01:46:52.574Z,100336
2015-03-25T01:47:10.809Z,100334
2015-03-25T01:47:29.061Z,100336
2015-03-25T01:47:47.311Z,100325
2015-03-25T01:48:05.561Z,100331
2015-03-25T01:48:23.797Z,100341
2015-03-25T01:48:42.047Z,100331
2015-03-25T01:49:00.282Z,100347
2015-03-25T01:49:18.532Z,100331
2015-03-25T01:49:36.768Z,100341
2015-03-25T01:49:55.018Z,100334
2015-03-25T01:50:13.252Z,100331
2015-03-25T01:50:31.505Z,100336
2015-03-25T01:50:49.755Z,100331
2015-03-25T01:51:07.990Z,100325
2015-03-25T01:51:26.242Z,100334
2015-03-25T01:51:44.476Z,100336
2015-03-25T01:52:02.726Z,100325
2015-03-25T01:52:20.962Z,100325
2015-03-25T01:52:39.212Z,100325
2015-03-25T01:52:57.447Z,100331
2015-03-25T01:53:15.697Z,100331
2015-03-25T01:53:33.950Z,100325
2015-03-25T01:53:52.184Z,100336
2015-03-25T01:54:10.419Z,100334
2015-03-25T01:54:28.672Z,100341
2015-03-25T01:54:46.906Z,100331
2015-03-25T01:55:05.156Z,100331
2015-03-25T01:55:23.392Z,100331
2015-03-25T01:55:41.642Z,100336
2015-03-25T01:55:59.877Z,100331
2015-03-25T01:56:18.127Z,100325
2015-03-25T01:56:36.379Z,100341
2015-03-25T01:56:54.613Z,100341
2015-03-25T01:57:12.847Z,100331
2015-03-25T01:57:31.100Z,100336
2015-03-25T01:57:49.335Z,100331
2015-03-25T01:58:07.585Z,100331
2015-03-25T01:58:25.820Z,100336
2015-03-25T01:58:44.070Z,100336
2015-03-25T01:59:02.305Z,100336
2015-03-25T01:59:20.539Z,100338
2015-03-25T01:59:38.791Z,100338
2015-03-25T01:59:57.025Z,100341
2015-03-25T02:00:15.275Z,100341
2015-03-25T02:00:33.513Z,100347
2015-03-25T02:00:51.606Z,100336
2015-03-25T02:01:09.856Z,100347
2015-03-25T02:01:28.094Z,100347
2015-03-25T02:01:46.344Z,100344
2015-03-25T02:02:04.578Z,100347
2015-03-25T02:02:22.828Z,100350
2015-03-25T02:02:41.079Z,100359
2015-03-25T02:02:59.329Z,100347
2015-03-25T02:03:17.564Z,100347
2015-03-25T02:03:35.817Z,100341
2015-03-25T02:03:54.051Z,100347
2015-03-25T02:04:12.301Z,100347
2015-03-25T02:04:30.553Z,100347
2015-03-25T02:04:48.787Z,100338
2015-03-25T02:05:07.037Z,100347
2015-03-25T02:05:25.275Z,100359
2015-03-25T02:05:43.509Z,100344
2015-03-25T02:06:01.759Z,100353
2015-03-25T02:06:19.993Z,100344
2015-03-25T02:06:38.245Z,100353
2015-03-25T02:06:56.480Z,100347
2015-03-25T02:07:14.730Z,100344
2015-03-25T02:07:32.966Z,100350
2015-03-25T02:07:51.216Z,100341
2015-03-25T02:08:09.451Z,100350
2015-03-25T02:08:27.703Z,100336
2015-03-25T02:08:45.953Z,100353
2015-03-25T02:09:04.187Z,100353
2015-03-25T02:09:22.437Z,100347
2015-03-25T02:09:40.674Z,100347
2015-03-25T02:09:58.909Z,100353
2015-03-25T02:10:17.159Z,100347
2015-03-25T02:10:35.396Z,100344
2015-03-25T02:10:53.646Z,100347
2015-03-25T02:11:11.880Z,100350
2015-03-25T02:11:30.132Z,100356
2015-03-25T02:11:48.367Z,100353
2015-03-25T02:12:06.617Z,100347
2015-03-25T02:12:24.867Z,100347
2015-03-25T02:12:43.103Z,100341
2015-03-25T02:13:01.369Z,100359
2015-03-25T02:13:19.603Z,100350
2015-03-25T02:13:37.840Z,100350
2015-03-25T02:13:56.074Z,100359
2015-03-25T02:14:13.668Z,100353
2015-03-25T02:14:31.904Z,100344
2015-03-25T02:14:50.138Z,100347
2015-03-25T02:15:08.388Z,100356
2015-03-25T02:15:26.623Z,100350
2015-03-25T02:15:44.876Z,100341
2015-03-25T02:16:03.110Z,100344
2015-03-25T02:16:21.360Z,100347
2015-03-25T02:16:39.613Z,100347
2015-03-25T02:16:57.848Z,100344
2015-03-25T02:17:16.098Z,100336
2015-03-25T02:17:34.334Z,100350
2015-03-25T02:17:52.568Z,100336
2015-03-25T02:18:10.803Z,100347
2015-03-25T02:18:29.054Z,100350
2015-03-25T02:18:47.288Z,100353
2015-03-25T02:19:05.538Z,100338
2015-03-25T02:19:23.772Z,100344
2015-03-25T02:19:42.010Z,100341
2015-03-25T02:20:00.260Z,100344
2015-03-25T02:20:18.635Z,100347
2015-03-25T02:20:36.887Z,100347
2015-03-25T02:20:55.121Z,100344
2015-03-25T02:21:13.371Z,100341
2015-03-25T02:21:31.608Z,100347
2015-03-25T02:21:49.842Z,100347
2015-03-25T02:22:08.092Z,100347
2015-03-25T02:22:26.326Z,100336
2015-03-25T02:22:44.579Z,100341
2015-03-25T02:23:02.814Z,100361
2015-03-25T02:23:20.392Z,100347
2015-03-25T02:23:38.644Z,100338
2015-03-25T02:23:56.878Z,100344
2015-03-25T02:24:15.128Z,100341
2015-03-25T02:24:33.366Z,100347
2015-03-25T02:24:51.616Z,100347
2015-03-25T02:25:09.850Z,100336
2015-03-25T02:25:28.100Z,100341
2015-03-25T02:25:46.336Z,100338
2015-03-25T02:26:04.586Z,100336
2015-03-25T02:26:22.821Z,100341
2015-03-25T02:26:41.058Z,100344
2015-03-25T02:26:59.308Z,100331
2015-03-25T02:27:17.558Z,100338
2015-03-25T02:27:35.793Z,100338
2015-03-25T02:27:54.043Z,100338
2015-03-25T02:28:12.278Z,100334
2015-03-25T02:28:30.528Z,100334
2015-03-25T02:28:48.765Z,100334
2015-03-25T02:29:07.000Z,100336
2015-03-25T02:29:25.250Z,100336
2015-03-25T02:29:43.487Z,100336
2015-03-25T02:30:01.737Z,100336
2015-03-25T02:30:19.971Z,100334
2015-03-25T02:30:38.207Z,100341
2015-03-25T02:30:56.457Z,100331
2015-03-25T02:31:14.691Z,100341
2015-03-25T02:31:32.928Z,100338
2015-03-25T02:31:51.178Z,100336
2015-03-25T02:32:09.413Z,100331
2015-03-25T02:32:27.663Z,100334
2015-03-25T02:32:45.931Z,100344
2015-03-25T02:33:04.150Z,100336
2015-03-25T02:33:22.385Z,100336
2015-03-25T02:33:40.648Z,100334
2015-03-25T02:33:58.882Z,100331
2015-03-25T02:34:17.116Z,100336
2015-03-25T02:34:35.381Z,100334
2015-03-25T02:34:53.616Z,100341
2015-03-25T02:35:11.850Z,100341
2015-03-25T02:35:30.100Z,100338
2015-03-25T02:35:48.349Z,100325
2015-03-25T02:36:06.599Z,100336
2015-03-25T02:36:24.834Z,100325
2015-03-25T02:36:43.099Z,100331
2015-03-25T02:37:01.333Z,100336
2015-03-25T02:37:19.583Z,100334
2015-03-25T02:37:37.832Z,100336
2015-03-25T02:37:56.082Z,100336
2015-03-25T02:38:14.316Z,100331
2015-03-25T02:38:32.566Z,100331
2015-03-25T02:38:50.807Z,100331
2015-03-25T02:39:09.042Z,100338
2015-03-25T02:39:27.292Z,100334
2015-03-25T02:39:45.533Z,100338
2015-03-25T02:40:03.783Z,100338
2015-03-25T02:40:22.033Z,100338
2015-03-25T02:40:40.274Z,100322
2015-03-25T02:40:58.524Z,100334
2015-03-25T02:41:16.759Z,100336
2015-03-25T02:41:35.016Z,100338
2015-03-25T02:41:53.250Z,100336
2015-03-25T02:42:11.485Z,100338
2015-03-25T02:42:29.735Z,100336
2015-03-25T02:42:47.976Z,100338
2015-03-25T02:43:06.210Z,100350
2015-03-25T02:43:24.460Z,100336
2015-03-25T02:43:42.699Z,100336
2015-03-25T02:44:00.933Z,100338
2015-03-25T02:44:19.183Z,100341
2015-03-25T02:44:37.421Z,100341
2015-03-25T02:44:55.671Z,100338
2015-03-25T02:45:13.906Z,100336
2015-03-25T02:45:32.140Z,100336
2015-03-25T02:45:50.393Z,100331
2015-03-25T02:46:08.628Z,100336
2015-03-25T02:46:26.878Z,100336
2015-03-25T02:46:45.116Z,100341
2015-03-25T02:47:03.366Z,100334
2015-03-25T02:47:21.616Z,100338
2015-03-25T02:47:39.854Z,100331
2015-03-25T02:47:58.089Z,100336
2015-03-25T02:48:16.339Z,100322
2015-03-25T02:48:34.589Z,100331
2015-03-25T02:48:52.842Z,100336
2015-03-25T02:49:11.076Z,100331
2015-03-25T02:49:29.310Z,100338
2015-03-25T02:49:47.562Z,100331
2015-03-25T02:50:05.797Z,100325
2015-03-25T02:50:24.047Z,100334
2015-03-25T02:50:42.284Z,100331
2015-03-25T02:51:00.534Z,100334
2015-03-25T02:51:18.769Z,100334
2015-03-25T02:51:37.019Z,100322
2015-03-25T02:51:55.256Z,100325
2015-03-25T02:52:13.522Z,100336
2015-03-25T02:52:31.756Z,100325
2015-03-25T02:52:49.993Z,100325
2015-03-25T02:53:08.228Z,100336
2015-03-25T02:53:26.478Z,100319
2015-03-25T02:53:44.730Z,100331
2015-03-25T02:54:02.964Z,100331
2015-03-25T02:54:21.198Z,100336
2015-03-25T02:54:39.451Z,100338
2015-03-25T02:54:57.686Z,100322
2015-03-25T02:55:15.936Z,100336
2015-03-25T02:55:34.186Z,100336
2015-03-25T02:55:52.423Z,100322
2015-03-25T02:56:10.673Z,100322
2015-03-25T02:56:28.908Z,100331
2015-03-25T02:56:47.160Z,100331
2015-03-25T02:57:05.394Z,100336
2015-03-25T02:57:23.628Z,100338
2015-03-25T02:57:41.881Z,100341
2015-03-25T02:58:00.116Z,100331
2015-03-25T02:58:18.366Z,100325
2015-03-25T02:58:36.600Z,100341
2015-03-25T02:58:54.196Z,100331
2015-03-25T02:59:12.430Z,100338
2015-03-25T02:59:30.680Z,100334
2015-03-25T02:59:48.917Z,100325
2015-03-25T03:00:07.167Z,100334
2015-03-25T03:00:25.401Z,100331
2015-03-25T03:00:43.654Z,100334
2015-03-25T03:01:01.888Z,100331
2015-03-25T03:01:20.138Z,100331
2015-03-25T03:01:38.373Z,100331
2015-03-25T03:01:56.625Z,100331
2015-03-25T03:02:14.859Z,100334
2015-03-25T03:02:33.109Z,100336
2015-03-25T03:02:51.346Z,100336
2015-03-25T03:03:09.596Z,100325
2015-03-25T03:03:27.831Z,100331
2015-03-25T03:03:46.083Z,100334
2015-03-25T03:04:04.317Z,100322
2015-03-25T03:04:22.567Z,100334
2015-03-25T03:04:40.804Z,100331
2015-03-25T03:04:59.038Z,100316
2015-03-25T03:05:17.288Z,100331
2015-03-25T03:05:35.538Z,100322
2015-03-25T03:05:53.775Z,100331
2015-03-25T03:06:12.025Z,100325
2015-03-25T03:06:30.260Z,100325
2015-03-25T03:06:48.512Z,100325
2015-03-25T03:07:06.762Z,100334
2015-03-25T03:07:24.996Z,100316
2015-03-25T03:07:43.248Z,100331
2015-03-25T03:08:01.482Z,100322
2015-03-25T03:08:19.732Z,100322
2015-03-25T03:08:37.982Z,100325
2015-03-25T03:08:56.219Z,100322
2015-03-25T03:09:14.453Z,100322
2015-03-25T03:09:32.703Z,100325
2015-03-25T03:09:50.941Z,100311
2015-03-25T03:10:09.175Z,100319
2015-03-25T03:10:27.425Z,100322
2015-03-25T03:10:45.677Z,100316
2015-03-25T03:11:03.911Z,100325
2015-03-25T03:11:21.505Z,100308
2015-03-25T03:11:39.739Z,100322
2015-03-25T03:11:57.991Z,100325
2015-03-25T03:12:16.226Z,100316
2015-03-25T03:12:34.476Z,100316
2015-03-25T03:12:52.713Z,100311
2015-03-25T03:13:10.948Z,100313
2015-03-25T03:13:29.198Z,100322
2015-03-25T03:13:47.435Z,100322
2015-03-25T03:14:05.669Z,100316
2015-03-25T03:14:23.919Z,100334
2015-03-25T03:14:42.154Z,100322
2015-03-25T03:15:00.406Z,100331
2015-03-25T03:15:18.640Z,100331
2015-03-25T03:15:36.890Z,100319
2015-03-25T03:15:55.126Z,100316
2015-03-25T03:16:13.376Z,100325
2015-03-25T03:16:31.611Z,100325
2015-03-25T03:16:49.848Z,100334
2015-03-25T03:17:08.098Z,100322
2015-03-25T03:17:26.333Z,100322
2015-03-25T03:17:44.567Z,100322
2015-03-25T03:18:02.818Z,100325
2015-03-25T03:18:21.052Z,100334
2015-03-25T03:18:38.646Z,100322
2015-03-25T03:18:56.882Z,100325
2015-03-25T03:19:15.132Z,100322
2015-03-25T03:19:33.382Z,100322
2015-03-25T03:19:51.620Z,100311
2015-03-25T03:20:09.870Z,100322
2015-03-25T03:20:28.104Z,100319
2015-03-25T03:20:46.356Z,100322
2015-03-25T03:21:04.591Z,100322
2015-03-25T03:21:22.841Z,100316
2015-03-25T03:21:41.075Z,100319
2015-03-25T03:21:59.328Z,100322
2015-03-25T03:22:17.562Z,100331
2015-03-25T03:22:35.797Z,100316
2015-03-25T03:22:54.049Z,100319
2015-03-25T03:23:12.283Z,100319
2015-03-25T03:23:30.533Z,100325
2015-03-25T03:23:48.785Z,100322
2015-03-25T03:24:07.035Z,100325
2015-03-25T03:24:25.285Z,100319
2015-03-25T03:24:43.519Z,100331
2015-03-25T03:25:01.787Z,100319
2015-03-25T03:25:20.021Z,100322
2015-03-25T03:25:38.256Z,100316
2015-03-25T03:25:56.509Z,100316
2015-03-25T03:26:14.743Z,100331
2015-03-25T03:26:32.978Z,100331
2015-03-25T03:26:51.073Z,100319
2015-03-25T03:27:09.308Z,100325
2015-03-25T03:27:27.558Z,100319
2015-03-25T03:27:45.808Z,100331
2015-03-25T03:28:04.045Z,100325
2015-03-25T03:28:22.279Z,100331
2015-03-25T03:28:40.529Z,100322
2015-03-25T03:28:58.781Z,100316
2015-03-25T03:29:17.016Z,100319
2015-03-25T03:29:35.266Z,100331
2015-03-25T03:29:53.502Z,100331
2015-03-25T03:30:11.752Z,100319
2015-03-25T03:30:29.987Z,100325
2015-03-25T03:30:48.223Z,100322
2015-03-25T03:31:06.473Z,100325
2015-03-25T03:31:24.707Z,100322
2015-03-25T03:31:42.957Z,100319
2015-03-25T03:32:01.195Z,100331
2015-03-25T03:32:19.445Z,100319
2015-03-25T03:32:37.695Z,100334
2015-03-25T03:32:55.931Z,100322
2015-03-25T03:33:14.165Z,100325
2015-03-25T03:33:32.415Z,100334
2015-03-25T03:33:50.653Z,100334
2015-03-25T03:34:08.903Z,100322
2015-03-25T03:34:27.137Z,100334
2015-03-25T03:34:45.387Z,100334
2015-03-25T03:35:03.623Z,100334
2015-03-25T03:35:21.873Z,100322
2015-03-25T03:35:40.107Z,100325
2015-03-25T03:35:58.360Z,100331
2015-03-25T03:36:16.594Z,100336
2015-03-25T03:36:34.844Z,100336
2015-03-25T03:36:53.082Z,100341
2015-03-25T03:37:11.332Z,100331
2015-03-25T03:37:29.582Z,100334
2015-03-25T03:37:47.160Z,100331
2015-03-25T03:38:05.411Z,100334
2015-03-25T03:38:23.645Z,100338
2015-03-25T03:38:41.895Z,100325
2015-03-25T03:39:00.133Z,100325
2015-03-25T03:39:18.383Z,100336
2015-03-25T03:39:36.617Z,100334
2015-03-25T03:39:54.853Z,100334
2015-03-25T03:40:13.103Z,100334
2015-03-25T03:40:31.338Z,100341
2015-03-25T03:40:49.588Z,100338
2015-03-25T03:41:07.840Z,100334
2015-03-25T03:41:26.074Z,100341
2015-03-25T03:41:44.324Z,100336
2015-03-25T03:42:02.561Z,100341
2015-03-25T03:42:20.796Z,100334
2015-03-25T03:42:39.046Z,100341
2015-03-25T03:42:57.298Z,100334
2015-03-25T03:43:15.532Z,100334
2015-03-25T03:43:33.782Z,100338
2015-03-25T03:43:52.017Z,100344
2015-03-25T03:44:10.269Z,100344
2015-03-25T03:44:28.519Z,100344
2015-03-25T03:44:46.753Z,100347
2015-03-25T03:45:05.006Z,100344
2015-03-25T03:45:23.240Z,100338
2015-03-25T03:45:41.490Z,100347
2015-03-25T03:45:59.727Z,100344
2015-03-25T03:46:17.977Z,100347
2015-03-25T03:46:36.227Z,100353
2015-03-25T03:46:54.461Z,100341
2015-03-25T03:47:12.714Z,100347
2015-03-25T03:47:30.948Z,100347